createdAt,value
2023-01-25T00:04:14.454Z,0
2023-01-25T00:09:33.959Z,0
2023-01-25T00:14:52.775Z,0
2023-01-25T00:20:12.426Z,0
2023-01-25T00:30:50.858Z,0
2023-01-25T00:36:10.177Z,0
2023-01-25T00:46:49.179Z,0
2023-01-25T00:52:08.528Z,0
2023-01-25T00:57:28.007Z,0
2023-01-25T01:02:47.528Z,0
2023-01-25T01:08:06.747Z,0
2023-01-25T01:13:25.878Z,0
2023-01-25T01:18:44.932Z,0
2023-01-25T01:24:04.336Z,0
2023-01-25T01:29:24.174Z,0
2023-01-25T01:34:43.244Z,0
2023-01-25T01:40:02.442Z,0
2023-01-25T01:45:21.615Z,0
2023-01-25T01:50:41.278Z,0
2023-01-25T01:56:00.724Z,0
2023-01-25T02:01:20.406Z,0
2023-01-25T02:11:58.459Z,0
2023-01-25T02:17:17.552Z,0
2023-01-25T02:22:36.797Z,0
2023-01-25T02:27:56.594Z,0
2023-01-25T02:33:15.952Z,0
2023-01-25T02:38:35.402Z,0
2023-01-25T02:43:54.404Z,0
2023-01-25T02:54:32.772Z,0
2023-01-25T02:59:52.850Z,0
2023-01-25T03:05:12.076Z,0
2023-01-25T03:10:31.641Z,0
2023-01-25T03:21:10.245Z,0
2023-01-25T03:26:29.557Z,0
2023-01-25T03:37:07.655Z,0
2023-01-25T03:42:27.265Z,0
2023-01-25T03:53:05.587Z,0
2023-01-25T04:03:44.326Z,0
2023-01-25T04:09:03.583Z,0
2023-01-25T04:19:42.241Z,0
2023-01-25T04:25:01.031Z,0
2023-01-25T04:35:40.100Z,0
2023-01-25T04:40:58.959Z,0
2023-01-25T04:46:18.837Z,0
2023-01-25T04:51:38.315Z,0
2023-01-25T04:56:57.533Z,0
2023-01-25T05:02:16.753Z,0
2023-01-25T05:07:35.946Z,0
2023-01-25T05:18:14.023Z,0
2023-01-25T05:23:33.484Z,0
2023-01-25T05:28:52.969Z,0
2023-01-25T05:34:11.735Z,0
2023-01-25T05:44:50.821Z,0
2023-01-25T05:55:29.477Z,0
2023-01-25T06:00:49.063Z,0
2023-01-25T06:11:27.778Z,0
2023-01-25T06:22:05.637Z,0
2023-01-25T06:27:25.361Z,0
2023-01-25T06:38:04.153Z,0
2023-01-25T06:43:23.636Z,2
2023-01-25T06:54:02.284Z,15
2023-01-25T06:59:21.356Z,28
2023-01-25T07:05:55.512Z,45
2023-01-25T07:10:00.526Z,58
2023-01-25T07:20:38.731Z,132
2023-01-25T07:25:57.589Z,184
2023-01-25T07:36:36.296Z,264
2023-01-25T07:41:55.261Z,277
2023-01-25T07:47:14.183Z,320
2023-01-25T07:52:32.205Z,366
2023-01-25T08:03:10.181Z,484
2023-01-25T08:08:29.376Z,491
2023-01-25T08:19:07.397Z,594
2023-01-25T08:24:26.618Z,646
2023-01-25T08:29:45.806Z,730
2023-01-25T08:35:04.610Z,762
2023-01-25T08:40:23.796Z,867
2023-01-25T08:45:43.035Z,982
2023-01-25T08:51:02.297Z,1014
2023-01-25T09:01:40.295Z,1159
2023-01-25T09:08:14.488Z,1114
2023-01-25T09:12:20.133Z,1243
2023-01-25T09:17:38.061Z,1218
2023-01-25T09:22:57.497Z,1203
2023-01-25T09:28:17.128Z,1313
2023-01-25T09:33:36.802Z,1477
2023-01-25T09:44:15.424Z,1692
2023-01-25T09:49:34.332Z,1734
2023-01-25T09:54:53.993Z,1862
2023-01-25T10:00:13.306Z,1824
2023-01-25T10:05:32.159Z,1904
2023-01-25T10:10:51.248Z,1899
2023-01-25T10:16:17.674Z,1808
2023-01-25T10:26:48.575Z,1991
2023-01-25T10:32:07.681Z,1930
2023-01-25T10:37:27.102Z,2171
2023-01-25T10:42:46.214Z,2090
2023-01-25T10:53:24.225Z,2204
2023-01-25T10:58:43.449Z,2215
2023-01-25T11:09:22.220Z,2106
2023-01-25T11:14:41.453Z,2189
2023-01-25T11:25:19.895Z,2225
2023-01-25T11:35:58.422Z,2334
2023-01-25T11:41:16.705Z,2547
2023-01-25T11:51:55.688Z,2632
2023-01-25T11:57:15.020Z,2663
2023-01-25T12:07:53.683Z,2874
2023-01-25T12:13:13.117Z,2753
2023-01-25T12:18:32.032Z,2921
2023-01-25T12:29:10.553Z,3074
2023-01-25T12:34:29.495Z,2831
2023-01-25T12:45:08.341Z,2628
2023-01-25T12:50:28.057Z,2680
2023-01-25T12:55:47.273Z,2650
2023-01-25T13:01:06.794Z,2607
2023-01-25T13:06:26.208Z,2887
2023-01-25T13:11:45.073Z,2640
2023-01-25T13:17:10.036Z,2383
2023-01-25T13:27:44.674Z,2192
2023-01-25T13:33:02.550Z,2180
2023-01-25T13:39:36.722Z,2152
2023-01-25T13:43:42.231Z,2057
2023-01-25T13:49:01.871Z,2042
2023-01-25T13:54:20.741Z,1988
2023-01-25T13:59:39.309Z,1865
2023-01-25T14:10:18.327Z,1574
2023-01-25T14:15:37.554Z,1481
2023-01-25T14:26:16.674Z,1240
2023-01-25T14:31:35.774Z,1143
2023-01-25T14:36:55.423Z,1053
2023-01-25T14:42:15.051Z,943
2023-01-25T14:52:53.540Z,827
2023-01-25T14:58:12.550Z,762
2023-01-25T15:08:51.301Z,608
2023-01-25T15:14:10.926Z,520
2023-01-25T15:19:30.572Z,450
2023-01-25T15:24:57.327Z,375
2023-01-25T15:35:28.892Z,300
2023-01-25T15:40:48.626Z,218
2023-01-25T15:51:27.361Z,123
2023-01-25T16:02:06.309Z,62
2023-01-25T16:07:25.638Z,39
2023-01-25T16:18:04.051Z,10
2023-01-25T16:23:22.649Z,4
2023-01-25T16:34:01.343Z,0
2023-01-25T16:39:21.592Z,0
2023-01-25T16:44:39.710Z,0
2023-01-25T16:50:25.655Z,0
2023-01-25T16:55:44.648Z,0
2023-01-25T17:06:22.554Z,0
2023-01-25T17:17:01.387Z,0
2023-01-25T17:22:20.876Z,0
2023-01-25T17:32:59.003Z,0
2023-01-25T17:38:18.750Z,0
2023-01-25T17:48:57.944Z,0
2023-01-25T17:59:36.947Z,0
2023-01-25T18:04:56.382Z,0
2023-01-25T18:10:16.192Z,0
2023-01-25T18:15:35.477Z,0
2023-01-25T18:20:55.173Z,0
2023-01-25T18:31:34.647Z,0
2023-01-25T18:36:53.737Z,0
2023-01-25T18:42:13.297Z,0
2023-01-25T18:47:32.963Z,0
2023-01-25T18:58:12.273Z,0
2023-01-25T19:03:31.206Z,0
2023-01-25T19:14:09.908Z,0
2023-01-25T19:19:29.027Z,0
2023-01-25T19:24:48.418Z,0
2023-01-25T19:35:26.389Z,0
2023-01-25T19:40:45.128Z,0
2023-01-25T19:47:19.323Z,0
2023-01-25T19:51:25.266Z,0
2023-01-25T19:56:44.251Z,0
2023-01-25T20:02:02.473Z,0
2023-01-25T20:07:21.579Z,0
2023-01-25T20:12:40.649Z,0
2023-01-25T20:17:59.685Z,0
2023-01-25T20:23:19.013Z,0
2023-01-25T20:29:53.160Z,0
2023-01-25T20:34:08.562Z,0
2023-01-25T20:39:16.175Z,0
2023-01-25T20:44:34.281Z,0
2023-01-25T20:49:53.198Z,0
2023-01-25T20:55:12.910Z,0
2023-01-25T21:00:31.731Z,0
2023-01-25T21:05:50.937Z,0
2023-01-25T21:16:30.429Z,0
2023-01-25T21:21:50.291Z,0
2023-01-25T21:27:08.866Z,0
2023-01-25T21:43:07.791Z,0
2023-01-25T21:48:26.807Z,0
2023-01-25T22:00:43.283Z,0
2023-01-25T22:04:22.782Z,0
2023-01-25T22:11:21.376Z,0
2023-01-25T22:15:02.911Z,0
2023-01-25T22:25:40.902Z,0
2023-01-25T22:31:00.713Z,0
2023-01-25T22:41:38.892Z,0
2023-01-25T22:46:58.232Z,0
2023-01-25T22:57:36.836Z,0
2023-01-25T23:08:14.706Z,0
2023-01-25T23:13:34.284Z,0
2023-01-25T23:24:13.280Z,0
2023-01-25T23:29:32.939Z,0
2023-01-25T23:40:12.526Z,0
2023-01-25T23:50:50.830Z,0
2023-01-25T23:56:10.577Z,0
